sensor_id;sensor_type;location;lat;lon;timestamp;temperature;humidity
74081;SHT31;62438;52.228;6.864;2022-09-03T00:00:19;16.67;52.51
74081;SHT31;62438;52.228;6.864;2022-09-03T00:02:46;16.75;52.14
74081;SHT31;62438;52.228;6.864;2022-09-03T00:04:54;16.81;51.86
74081;SHT31;62438;52.228;6.864;2022-09-03T00:07:02;16.76;51.65
74081;SHT31;62438;52.228;6.864;2022-09-03T00:09:12;16.72;51.94
74081;SHT31;62438;52.228;6.864;2022-09-03T00:13:49;16.82;51.72
74081;SHT31;62438;52.228;6.864;2022-09-03T00:15:51;16.76;51.71
74081;SHT31;62438;52.228;6.864;2022-09-03T00:17:58;16.76;51.50
74081;SHT31;62438;52.228;6.864;2022-09-03T00:20:15;16.79;51.62
74081;SHT31;62438;52.228;6.864;2022-09-03T00:22:32;16.85;51.42
74081;SHT31;62438;52.228;6.864;2022-09-03T00:24:37;16.84;51.44
74081;SHT31;62438;52.228;6.864;2022-09-03T00:26:39;16.79;51.60
74081;SHT31;62438;52.228;6.864;2022-09-03T00:28:49;16.69;51.56
74081;SHT31;62438;52.228;6.864;2022-09-03T00:31:08;16.67;51.65
74081;SHT31;62438;52.228;6.864;2022-09-03T00:33:20;16.60;51.99
74081;SHT31;62438;52.228;6.864;2022-09-03T00:35:34;16.53;52.35
74081;SHT31;62438;52.228;6.864;2022-09-03T00:37:36;16.54;52.13
74081;SHT31;62438;52.228;6.864;2022-09-03T00:39:37;16.61;52.00
74081;SHT31;62438;52.228;6.864;2022-09-03T00:46:17;16.54;52.05
74081;SHT31;62438;52.228;6.864;2022-09-03T00:48:26;16.60;51.78
74081;SHT31;62438;52.228;6.864;2022-09-03T00:53:08;16.72;51.41
74081;SHT31;62438;52.228;6.864;2022-09-03T00:55:21;16.54;52.21
74081;SHT31;62438;52.228;6.864;2022-09-03T01:00:12;16.65;51.44
74081;SHT31;62438;52.228;6.864;2022-09-03T01:02:29;16.55;52.10
74081;SHT31;62438;52.228;6.864;2022-09-03T01:07:18;16.50;51.88
74081;SHT31;62438;52.228;6.864;2022-09-03T01:11:58;16.35;52.41
74081;SHT31;62438;52.228;6.864;2022-09-03T01:18:58;16.43;51.97
74081;SHT31;62438;52.228;6.864;2022-09-03T01:23:47;16.28;52.45
74081;SHT31;62438;52.228;6.864;2022-09-03T01:30:22;16.18;52.67
74081;SHT31;62438;52.228;6.864;2022-09-03T01:32:54;16.10;53.02
74081;SHT31;62438;52.228;6.864;2022-09-03T01:42:06;16.00;53.25
74081;SHT31;62438;52.228;6.864;2022-09-03T01:44:48;15.92;54.29
74081;SHT31;62438;52.228;6.864;2022-09-03T01:47:21;15.90;54.11
74081;SHT31;62438;52.228;6.864;2022-09-03T01:49:39;15.82;54.10
74081;SHT31;62438;52.228;6.864;2022-09-03T01:51:40;15.86;53.83
74081;SHT31;62438;52.228;6.864;2022-09-03T01:59:01;15.69;54.70
74081;SHT31;62438;52.228;6.864;2022-09-03T02:01:12;15.56;55.41
74081;SHT31;62438;52.228;6.864;2022-09-03T02:03:15;15.69;54.34
74081;SHT31;62438;52.228;6.864;2022-09-03T02:05:18;15.79;53.76
74081;SHT31;62438;52.228;6.864;2022-09-03T02:07:19;15.62;54.86
74081;SHT31;62438;52.228;6.864;2022-09-03T02:09:22;15.61;55.11
74081;SHT31;62438;52.228;6.864;2022-09-03T02:11:23;15.65;54.47
74081;SHT31;62438;52.228;6.864;2022-09-03T02:13:26;15.68;54.73
74081;SHT31;62438;52.228;6.864;2022-09-03T02:15:27;15.65;55.20
74081;SHT31;62438;52.228;6.864;2022-09-03T02:17:31;15.56;55.13
74081;SHT31;62438;52.228;6.864;2022-09-03T02:19:33;15.61;55.00
74081;SHT31;62438;52.228;6.864;2022-09-03T02:21:55;15.52;55.02
74081;SHT31;62438;52.228;6.864;2022-09-03T02:23:56;15.65;54.43
74081;SHT31;62438;52.228;6.864;2022-09-03T02:25:59;15.47;55.60
74081;SHT31;62438;52.228;6.864;2022-09-03T02:28:00;15.45;55.18
74081;SHT31;62438;52.228;6.864;2022-09-03T02:30:02;15.49;55.31
74081;SHT31;62438;52.228;6.864;2022-09-03T02:32:02;15.47;55.16
74081;SHT31;62438;52.228;6.864;2022-09-03T02:34:03;15.38;55.58
74081;SHT31;62438;52.228;6.864;2022-09-03T02:36:09;15.39;55.79
74081;SHT31;62438;52.228;6.864;2022-09-03T02:40:16;15.27;55.77
74081;SHT31;62438;52.228;6.864;2022-09-03T02:42:17;15.39;55.34
74081;SHT31;62438;52.228;6.864;2022-09-03T02:44:28;15.37;55.61
74081;SHT31;62438;52.228;6.864;2022-09-03T02:46:58;15.34;55.74
74081;SHT31;62438;52.228;6.864;2022-09-03T02:48:56;15.26;56.12
74081;SHT31;62438;52.228;6.864;2022-09-03T02:50:57;15.20;56.60
74081;SHT31;62438;52.228;6.864;2022-09-03T02:52:58;15.11;56.85
74081;SHT31;62438;52.228;6.864;2022-09-03T02:54:58;15.14;56.32
74081;SHT31;62438;52.228;6.864;2022-09-03T02:56:59;15.12;56.70
74081;SHT31;62438;52.228;6.864;2022-09-03T02:58:59;15.10;56.30
74081;SHT31;62438;52.228;6.864;2022-09-03T03:01:00;15.08;56.90
74081;SHT31;62438;52.228;6.864;2022-09-03T03:03:02;15.14;56.39
74081;SHT31;62438;52.228;6.864;2022-09-03T03:05:03;15.16;56.12
74081;SHT31;62438;52.228;6.864;2022-09-03T03:07:07;15.06;56.93
74081;SHT31;62438;52.228;6.864;2022-09-03T03:09:08;14.97;56.74
74081;SHT31;62438;52.228;6.864;2022-09-03T03:11:08;15.01;56.81
74081;SHT31;62438;52.228;6.864;2022-09-03T03:13:09;14.94;57.17
74081;SHT31;62438;52.228;6.864;2022-09-03T03:15:09;14.90;57.62
74081;SHT31;62438;52.228;6.864;2022-09-03T03:17:10;14.86;57.22
74081;SHT31;62438;52.228;6.864;2022-09-03T03:19:10;14.86;57.27
74081;SHT31;62438;52.228;6.864;2022-09-03T03:21:14;14.91;57.02
74081;SHT31;62438;52.228;6.864;2022-09-03T03:23:15;14.90;57.12
74081;SHT31;62438;52.228;6.864;2022-09-03T03:25:15;14.81;57.59
74081;SHT31;62438;52.228;6.864;2022-09-03T03:27:16;14.80;57.91
74081;SHT31;62438;52.228;6.864;2022-09-03T03:29:18;14.73;57.67
74081;SHT31;62438;52.228;6.864;2022-09-03T03:31:20;14.73;57.74
74081;SHT31;62438;52.228;6.864;2022-09-03T03:33:21;14.79;57.59
74081;SHT31;62438;52.228;6.864;2022-09-03T03:35:22;14.81;57.18
74081;SHT31;62438;52.228;6.864;2022-09-03T03:37:22;14.76;57.33
74081;SHT31;62438;52.228;6.864;2022-09-03T03:39:23;14.70;58.02
74081;SHT31;62438;52.228;6.864;2022-09-03T03:41:25;14.76;57.40
74081;SHT31;62438;52.228;6.864;2022-09-03T03:43:26;14.79;57.43
74081;SHT31;62438;52.228;6.864;2022-09-03T03:45:26;14.79;57.62
74081;SHT31;62438;52.228;6.864;2022-09-03T03:47:30;14.72;57.69
74081;SHT31;62438;52.228;6.864;2022-09-03T03:49:30;14.73;57.43
74081;SHT31;62438;52.228;6.864;2022-09-03T03:51:31;14.76;57.52
74081;SHT31;62438;52.228;6.864;2022-09-03T03:53:33;14.81;57.27
74081;SHT31;62438;52.228;6.864;2022-09-03T03:55:34;14.76;57.82
74081;SHT31;62438;52.228;6.864;2022-09-03T03:57:35;14.72;57.62
74081;SHT31;62438;52.228;6.864;2022-09-03T03:59:36;14.73;58.13
74081;SHT31;62438;52.228;6.864;2022-09-03T04:01:36;14.65;58.21
74081;SHT31;62438;52.228;6.864;2022-09-03T04:03:37;14.53;58.20
74081;SHT31;62438;52.228;6.864;2022-09-03T04:05:37;14.56;58.17
74081;SHT31;62438;52.228;6.864;2022-09-03T04:07:38;14.45;58.94
74081;SHT31;62438;52.228;6.864;2022-09-03T04:09:38;14.48;58.58
74081;SHT31;62438;52.228;6.864;2022-09-03T04:11:38;14.50;58.48
74081;SHT31;62438;52.228;6.864;2022-09-03T04:13:41;14.56;58.33
74081;SHT31;62438;52.228;6.864;2022-09-03T04:15:43;14.60;58.29
74081;SHT31;62438;52.228;6.864;2022-09-03T04:17:43;14.59;58.16
74081;SHT31;62438;52.228;6.864;2022-09-03T04:19:43;14.62;57.87
74081;SHT31;62438;52.228;6.864;2022-09-03T04:21:47;14.58;58.19
74081;SHT31;62438;52.228;6.864;2022-09-03T04:23:48;14.46;59.00
74081;SHT31;62438;52.228;6.864;2022-09-03T04:25:53;14.55;58.44
74081;SHT31;62438;52.228;6.864;2022-09-03T04:27:53;14.58;58.04
74081;SHT31;62438;52.228;6.864;2022-09-03T04:29:54;14.60;57.95
74081;SHT31;62438;52.228;6.864;2022-09-03T04:31:54;14.60;58.24
74081;SHT31;62438;52.228;6.864;2022-09-03T04:34:13;14.55;58.27
74081;SHT31;62438;52.228;6.864;2022-09-03T04:36:19;14.45;58.58
74081;SHT31;62438;52.228;6.864;2022-09-03T04:38:20;14.39;58.70
74081;SHT31;62438;52.228;6.864;2022-09-03T04:40:20;14.56;58.59
74081;SHT31;62438;52.228;6.864;2022-09-03T04:42:21;14.43;58.81
74081;SHT31;62438;52.228;6.864;2022-09-03T04:44:21;14.43;58.70
74081;SHT31;62438;52.228;6.864;2022-09-03T04:46:24;14.38;58.82
74081;SHT31;62438;52.228;6.864;2022-09-03T04:48:26;14.36;59.06
74081;SHT31;62438;52.228;6.864;2022-09-03T04:50:28;14.39;58.90
74081;SHT31;62438;52.228;6.864;2022-09-03T04:52:29;14.29;59.68
74081;SHT31;62438;52.228;6.864;2022-09-03T04:54:30;14.26;59.26
74081;SHT31;62438;52.228;6.864;2022-09-03T04:56:33;14.32;59.34
74081;SHT31;62438;52.228;6.864;2022-09-03T04:58:34;14.29;59.16
74081;SHT31;62438;52.228;6.864;2022-09-03T05:00:37;14.35;58.94
74081;SHT31;62438;52.228;6.864;2022-09-03T05:02:38;14.35;58.81
74081;SHT31;62438;52.228;6.864;2022-09-03T05:04:38;14.29;59.23
74081;SHT31;62438;52.228;6.864;2022-09-03T05:06:39;14.25;59.73
74081;SHT31;62438;52.228;6.864;2022-09-03T05:08:39;14.28;59.49
74081;SHT31;62438;52.228;6.864;2022-09-03T05:10:40;14.33;59.06
74081;SHT31;62438;52.228;6.864;2022-09-03T05:12:41;14.25;59.78
74081;SHT31;62438;52.228;6.864;2022-09-03T05:14:41;14.22;59.83
74081;SHT31;62438;52.228;6.864;2022-09-03T05:16:42;14.26;59.62
74081;SHT31;62438;52.228;6.864;2022-09-03T05:18:43;14.28;59.46
74081;SHT31;62438;52.228;6.864;2022-09-03T05:20:44;14.29;59.41
74081;SHT31;62438;52.228;6.864;2022-09-03T05:22:44;14.35;59.51
74081;SHT31;62438;52.228;6.864;2022-09-03T05:24:45;14.31;59.64
74081;SHT31;62438;52.228;6.864;2022-09-03T05:26:45;14.35;59.40
74081;SHT31;62438;52.228;6.864;2022-09-03T05:28:46;14.36;59.12
74081;SHT31;62438;52.228;6.864;2022-09-03T05:31:00;14.35;59.59
74081;SHT31;62438;52.228;6.864;2022-09-03T05:33:01;14.36;59.71
74081;SHT31;62438;52.228;6.864;2022-09-03T05:35:03;14.42;59.44
74081;SHT31;62438;52.228;6.864;2022-09-03T05:37:04;14.33;60.39
74081;SHT31;62438;52.228;6.864;2022-09-03T05:39:04;14.38;59.78
74081;SHT31;62438;52.228;6.864;2022-09-03T05:41:07;14.39;59.62
74081;SHT31;62438;52.228;6.864;2022-09-03T05:43:08;14.42;59.61
74081;SHT31;62438;52.228;6.864;2022-09-03T05:45:09;14.45;59.21
74081;SHT31;62438;52.228;6.864;2022-09-03T05:47:10;14.52;59.14
74081;SHT31;62438;52.228;6.864;2022-09-03T05:49:10;14.65;59.35
74081;SHT31;62438;52.228;6.864;2022-09-03T05:51:13;14.60;59.26
74081;SHT31;62438;52.228;6.864;2022-09-03T05:53:15;14.65;59.57
74081;SHT31;62438;52.228;6.864;2022-09-03T05:55:16;14.69;58.93
74081;SHT31;62438;52.228;6.864;2022-09-03T05:57:16;14.68;59.42
74081;SHT31;62438;52.228;6.864;2022-09-03T05:59:18;14.76;59.12
74081;SHT31;62438;52.228;6.864;2022-09-03T06:01:27;14.72;58.89
74081;SHT31;62438;52.228;6.864;2022-09-03T06:03:28;14.70;59.48
74081;SHT31;62438;52.228;6.864;2022-09-03T06:05:28;14.80;59.16
74081;SHT31;62438;52.228;6.864;2022-09-03T06:07:29;14.83;59.38
74081;SHT31;62438;52.228;6.864;2022-09-03T06:09:29;14.80;59.50
74081;SHT31;62438;52.228;6.864;2022-09-03T06:11:34;15.03;58.57
74081;SHT31;62438;52.228;6.864;2022-09-03T06:13:35;15.00;58.99
74081;SHT31;62438;52.228;6.864;2022-09-03T06:15:36;14.96;59.31
74081;SHT31;62438;52.228;6.864;2022-09-03T06:17:38;14.98;59.59
74081;SHT31;62438;52.228;6.864;2022-09-03T06:19:38;15.01;59.58
74081;SHT31;62438;52.228;6.864;2022-09-03T06:21:41;15.18;58.78
74081;SHT31;62438;52.228;6.864;2022-09-03T06:23:42;15.30;58.24
74081;SHT31;62438;52.228;6.864;2022-09-03T06:25:42;15.30;58.66
74081;SHT31;62438;52.228;6.864;2022-09-03T06:27:44;15.45;57.78
74081;SHT31;62438;52.228;6.864;2022-09-03T06:29:44;15.48;57.65
74081;SHT31;62438;52.228;6.864;2022-09-03T06:31:45;15.55;57.94
74081;SHT31;62438;52.228;6.864;2022-09-03T06:33:47;15.56;58.42
74081;SHT31;62438;52.228;6.864;2022-09-03T06:35:52;15.70;57.88
74081;SHT31;62438;52.228;6.864;2022-09-03T06:37:56;15.72;58.99
74081;SHT31;62438;52.228;6.864;2022-09-03T06:40:00;15.82;57.55
74081;SHT31;62438;52.228;6.864;2022-09-03T06:42:00;16.03;56.23
74081;SHT31;62438;52.228;6.864;2022-09-03T06:44:03;16.05;56.94
74081;SHT31;62438;52.228;6.864;2022-09-03T06:46:17;16.30;56.14
74081;SHT31;62438;52.228;6.864;2022-09-03T06:48:18;16.24;56.39
74081;SHT31;62438;52.228;6.864;2022-09-03T06:50:18;16.33;56.05
74081;SHT31;62438;52.228;6.864;2022-09-03T06:52:19;16.54;54.82
74081;SHT31;62438;52.228;6.864;2022-09-03T06:54:19;16.54;54.96
74081;SHT31;62438;52.228;6.864;2022-09-03T06:56:21;16.64;54.61
74081;SHT31;62438;52.228;6.864;2022-09-03T06:58:30;16.74;53.99
74081;SHT31;62438;52.228;6.864;2022-09-03T07:00:31;16.82;54.61
74081;SHT31;62438;52.228;6.864;2022-09-03T07:02:31;16.99;53.44
74081;SHT31;62438;52.228;6.864;2022-09-03T07:04:32;17.05;53.51
74081;SHT31;62438;52.228;6.864;2022-09-03T07:06:35;17.06;53.41
74081;SHT31;62438;52.228;6.864;2022-09-03T07:08:38;17.22;52.89
74081;SHT31;62438;52.228;6.864;2022-09-03T07:10:38;17.20;53.42
74081;SHT31;62438;52.228;6.864;2022-09-03T07:12:39;17.32;53.93
74081;SHT31;62438;52.228;6.864;2022-09-03T07:14:40;17.46;53.28
74081;SHT31;62438;52.228;6.864;2022-09-03T07:16:40;17.54;52.41
74081;SHT31;62438;52.228;6.864;2022-09-03T07:18:42;17.67;51.81
74081;SHT31;62438;52.228;6.864;2022-09-03T07:20:42;17.74;52.57
74081;SHT31;62438;52.228;6.864;2022-09-03T07:22:43;17.73;52.27
74081;SHT31;62438;52.228;6.864;2022-09-03T07:24:43;17.77;52.01
74081;SHT31;62438;52.228;6.864;2022-09-03T07:26:46;17.81;51.29
74081;SHT31;62438;52.228;6.864;2022-09-03T07:28:48;17.99;52.08
74081;SHT31;62438;52.228;6.864;2022-09-03T07:30:50;18.12;51.63
74081;SHT31;62438;52.228;6.864;2022-09-03T07:32:54;18.18;51.19
74081;SHT31;62438;52.228;6.864;2022-09-03T07:34:54;18.28;50.97
74081;SHT31;62438;52.228;6.864;2022-09-03T07:36:57;18.43;51.99
74081;SHT31;62438;52.228;6.864;2022-09-03T07:38:58;18.52;50.14
74081;SHT31;62438;52.228;6.864;2022-09-03T07:41:00;18.59;50.78
74081;SHT31;62438;52.228;6.864;2022-09-03T07:43:00;18.76;50.51
74081;SHT31;62438;52.228;6.864;2022-09-03T07:45:06;18.81;49.63
74081;SHT31;62438;52.228;6.864;2022-09-03T07:47:11;18.88;49.52
74081;SHT31;62438;52.228;6.864;2022-09-03T07:49:14;19.01;50.59
74081;SHT31;62438;52.228;6.864;2022-09-03T07:51:14;19.01;48.76
74081;SHT31;62438;52.228;6.864;2022-09-03T07:53:15;19.22;49.25
74081;SHT31;62438;52.228;6.864;2022-09-03T07:55:16;19.25;49.14
74081;SHT31;62438;52.228;6.864;2022-09-03T07:57:16;19.24;48.38
74081;SHT31;62438;52.228;6.864;2022-09-03T07:59:17;19.27;49.04
74081;SHT31;62438;52.228;6.864;2022-09-03T08:01:24;19.32;48.48
74081;SHT31;62438;52.228;6.864;2022-09-03T08:03:25;19.45;49.14
74081;SHT31;62438;52.228;6.864;2022-09-03T08:05:25;19.62;48.78
74081;SHT31;62438;52.228;6.864;2022-09-03T08:07:28;19.69;48.63
74081;SHT31;62438;52.228;6.864;2022-09-03T08:09:29;19.87;49.37
74081;SHT31;62438;52.228;6.864;2022-09-03T08:11:36;19.89;47.26
74081;SHT31;62438;52.228;6.864;2022-09-03T08:15:37;20.14;46.07
74081;SHT31;62438;52.228;6.864;2022-09-03T08:17:42;20.33;46.17
74081;SHT31;62438;52.228;6.864;2022-09-03T08:19:43;20.51;45.08
74081;SHT31;62438;52.228;6.864;2022-09-03T08:21:46;20.49;45.63
74081;SHT31;62438;52.228;6.864;2022-09-03T08:23:48;20.67;45.11
74081;SHT31;62438;52.228;6.864;2022-09-03T08:25:57;20.71;45.27
74081;SHT31;62438;52.228;6.864;2022-09-03T08:27:58;20.69;46.01
74081;SHT31;62438;52.228;6.864;2022-09-03T08:29:59;20.85;45.84
74081;SHT31;62438;52.228;6.864;2022-09-03T08:31:59;20.86;45.29
74081;SHT31;62438;52.228;6.864;2022-09-03T08:34:01;20.95;45.39
74081;SHT31;62438;52.228;6.864;2022-09-03T08:38:07;20.89;45.08
74081;SHT31;62438;52.228;6.864;2022-09-03T08:40:08;21.16;46.27
74081;SHT31;62438;52.228;6.864;2022-09-03T08:49:08;21.47;44.57
74081;SHT31;62438;52.228;6.864;2022-09-03T08:51:11;21.53;45.41
74081;SHT31;62438;52.228;6.864;2022-09-03T08:55:55;21.58;43.57
74081;SHT31;62438;52.228;6.864;2022-09-03T08:58:13;21.65;45.10
74081;SHT31;62438;52.228;6.864;2022-09-03T09:00:14;21.74;44.06
74081;SHT31;62438;52.228;6.864;2022-09-03T09:04:58;21.80;43.63
74081;SHT31;62438;52.228;6.864;2022-09-03T09:07:19;21.97;44.06
74081;SHT31;62438;52.228;6.864;2022-09-03T09:09:26;22.02;43.22
74081;SHT31;62438;52.228;6.864;2022-09-03T09:11:49;22.16;42.29
74081;SHT31;62438;52.228;6.864;2022-09-03T09:14:14;22.02;43.95
74081;SHT31;62438;52.228;6.864;2022-09-03T09:16:38;22.26;44.46
74081;SHT31;62438;52.228;6.864;2022-09-03T09:23:13;22.55;41.89
74081;SHT31;62438;52.228;6.864;2022-09-03T09:25:17;22.49;41.42
74081;SHT31;62438;52.228;6.864;2022-09-03T09:27:18;22.59;43.13
74081;SHT31;62438;52.228;6.864;2022-09-03T09:29:19;22.66;41.31
74081;SHT31;62438;52.228;6.864;2022-09-03T09:31:19;22.71;42.00
74081;SHT31;62438;52.228;6.864;2022-09-03T09:33:20;22.77;40.93
74081;SHT31;62438;52.228;6.864;2022-09-03T09:35:21;23.05;40.44
74081;SHT31;62438;52.228;6.864;2022-09-03T09:37:22;22.84;40.67
74081;SHT31;62438;52.228;6.864;2022-09-03T09:39:23;23.01;40.38
74081;SHT31;62438;52.228;6.864;2022-09-03T09:41:24;23.07;40.04
74081;SHT31;62438;52.228;6.864;2022-09-03T09:43:27;23.29;40.58
74081;SHT31;62438;52.228;6.864;2022-09-03T09:45:28;23.22;40.22
74081;SHT31;62438;52.228;6.864;2022-09-03T09:47:30;23.28;40.16
74081;SHT31;62438;52.228;6.864;2022-09-03T09:49:36;23.53;39.96
74081;SHT31;62438;52.228;6.864;2022-09-03T09:51:37;23.72;40.01
74081;SHT31;62438;52.228;6.864;2022-09-03T09:53:38;23.80;39.26
74081;SHT31;62438;52.228;6.864;2022-09-03T09:55:50;23.79;39.54
74081;SHT31;62438;52.228;6.864;2022-09-03T09:58:04;23.99;39.15
74081;SHT31;62438;52.228;6.864;2022-09-03T10:00:14;23.84;37.98
74081;SHT31;62438;52.228;6.864;2022-09-03T10:02:26;23.89;39.06
74081;SHT31;62438;52.228;6.864;2022-09-03T10:04:31;23.86;39.17
74081;SHT31;62438;52.228;6.864;2022-09-03T10:06:31;24.14;38.60
74081;SHT31;62438;52.228;6.864;2022-09-03T10:08:52;24.34;37.75
74081;SHT31;62438;52.228;6.864;2022-09-03T10:10:53;24.44;38.71
74081;SHT31;62438;52.228;6.864;2022-09-03T10:13:10;24.50;38.52
74081;SHT31;62438;52.228;6.864;2022-09-03T10:15:21;24.67;38.63
74081;SHT31;62438;52.228;6.864;2022-09-03T10:17:39;24.57;38.36
74081;SHT31;62438;52.228;6.864;2022-09-03T10:19:51;24.72;37.32
74081;SHT31;62438;52.228;6.864;2022-09-03T10:22:17;24.55;37.13
74081;SHT31;62438;52.228;6.864;2022-09-03T10:26:26;24.69;36.66
74081;SHT31;62438;52.228;6.864;2022-09-03T10:28:30;24.75;36.36
74081;SHT31;62438;52.228;6.864;2022-09-03T10:30:38;24.92;37.53
74081;SHT31;62438;52.228;6.864;2022-09-03T10:33:05;24.93;36.40
74081;SHT31;62438;52.228;6.864;2022-09-03T10:35:12;25.23;36.51
74081;SHT31;62438;52.228;6.864;2022-09-03T10:47:08;26.14;34.78
74081;SHT31;62438;52.228;6.864;2022-09-03T10:49:30;26.18;34.08
74081;SHT31;62438;52.228;6.864;2022-09-03T10:51:41;26.45;34.29
74081;SHT31;62438;52.228;6.864;2022-09-03T10:56:06;26.61;34.52
74081;SHT31;62438;52.228;6.864;2022-09-03T11:00:26;27.14;33.50
74081;SHT31;62438;52.228;6.864;2022-09-03T11:05:01;27.34;32.56
74081;SHT31;62438;52.228;6.864;2022-09-03T11:07:07;27.01;33.68
74081;SHT31;62438;52.228;6.864;2022-09-03T11:09:26;27.34;32.21
74081;SHT31;62438;52.228;6.864;2022-09-03T11:13:40;27.35;32.29
74081;SHT31;62438;52.228;6.864;2022-09-03T11:15:48;27.30;32.07
74081;SHT31;62438;52.228;6.864;2022-09-03T11:18:00;27.67;31.99
74081;SHT31;62438;52.228;6.864;2022-09-03T11:20:16;28.11;32.39
74081;SHT31;62438;52.228;6.864;2022-09-03T11:22:18;27.92;32.00
74081;SHT31;62438;52.228;6.864;2022-09-03T11:24:25;28.03;31.33
74081;SHT31;62438;52.228;6.864;2022-09-03T11:26:26;28.04;31.46
74081;SHT31;62438;52.228;6.864;2022-09-03T11:28:41;28.09;30.52
74081;SHT31;62438;52.228;6.864;2022-09-03T11:33:09;28.14;31.53
74081;SHT31;62438;52.228;6.864;2022-09-03T11:35:16;28.16;31.73
74081;SHT31;62438;52.228;6.864;2022-09-03T11:37:28;28.04;31.24
74081;SHT31;62438;52.228;6.864;2022-09-03T11:41:34;27.89;32.05
74081;SHT31;62438;52.228;6.864;2022-09-03T11:43:37;28.09;30.74
74081;SHT31;62438;52.228;6.864;2022-09-03T11:45:39;28.22;32.17
74081;SHT31;62438;52.228;6.864;2022-09-03T11:47:42;28.13;31.77
74081;SHT31;62438;52.228;6.864;2022-09-03T11:49:46;28.58;30.57
74081;SHT31;62438;52.228;6.864;2022-09-03T11:52:03;28.85;32.38
74081;SHT31;62438;52.228;6.864;2022-09-03T11:56:18;28.58;30.22
74081;SHT31;62438;52.228;6.864;2022-09-03T11:58:38;28.14;31.32
74081;SHT31;62438;52.228;6.864;2022-09-03T12:00:40;28.59;31.91
74081;SHT31;62438;52.228;6.864;2022-09-03T12:02:54;28.83;31.85
74081;SHT31;62438;52.228;6.864;2022-09-03T12:07:21;28.59;30.48
74081;SHT31;62438;52.228;6.864;2022-09-03T12:18:30;28.98;31.21
74081;SHT31;62438;52.228;6.864;2022-09-03T12:20:32;28.89;31.00
74081;SHT31;62438;52.228;6.864;2022-09-03T12:22:35;28.91;31.32
74081;SHT31;62438;52.228;6.864;2022-09-03T12:24:37;28.92;29.73
74081;SHT31;62438;52.228;6.864;2022-09-03T12:26:42;29.43;28.99
74081;SHT31;62438;52.228;6.864;2022-09-03T12:28:45;28.48;31.41
74081;SHT31;62438;52.228;6.864;2022-09-03T12:30:46;28.01;31.17
74081;SHT31;62438;52.228;6.864;2022-09-03T12:32:47;28.10;32.38
74081;SHT31;62438;52.228;6.864;2022-09-03T12:34:48;28.18;32.15
74081;SHT31;62438;52.228;6.864;2022-09-03T12:36:51;28.38;31.50
74081;SHT31;62438;52.228;6.864;2022-09-03T12:38:51;28.24;31.46
74081;SHT31;62438;52.228;6.864;2022-09-03T12:40:52;28.45;32.02
74081;SHT31;62438;52.228;6.864;2022-09-03T12:42:54;28.74;30.81
74081;SHT31;62438;52.228;6.864;2022-09-03T12:45:04;28.18;31.99
74081;SHT31;62438;52.228;6.864;2022-09-03T12:49:13;28.31;31.17
74081;SHT31;62438;52.228;6.864;2022-09-03T12:51:14;28.58;31.44
74081;SHT31;62438;52.228;6.864;2022-09-03T12:53:25;28.50;31.75
74081;SHT31;62438;52.228;6.864;2022-09-03T12:55:35;28.79;31.49
74081;SHT31;62438;52.228;6.864;2022-09-03T12:57:52;28.17;32.64
74081;SHT31;62438;52.228;6.864;2022-09-03T12:59:57;28.61;31.29
74081;SHT31;62438;52.228;6.864;2022-09-03T13:02:11;28.36;31.40
74081;SHT31;62438;52.228;6.864;2022-09-03T13:04:18;28.11;32.18
74081;SHT31;62438;52.228;6.864;2022-09-03T13:06:25;28.41;31.91
74081;SHT31;62438;52.228;6.864;2022-09-03T13:08:33;29.05;30.85
74081;SHT31;62438;52.228;6.864;2022-09-03T13:10:37;28.89;30.50
74081;SHT31;62438;52.228;6.864;2022-09-03T13:12:45;28.85;29.94
74081;SHT31;62438;52.228;6.864;2022-09-03T13:14:49;29.29;29.78
74081;SHT31;62438;52.228;6.864;2022-09-03T13:17:14;29.30;30.92
74081;SHT31;62438;52.228;6.864;2022-09-03T13:19:40;28.83;31.61
74081;SHT31;62438;52.228;6.864;2022-09-03T13:26:17;28.67;31.47
74081;SHT31;62438;52.228;6.864;2022-09-03T13:30:56;28.82;31.57
74081;SHT31;62438;52.228;6.864;2022-09-03T13:33:19;28.61;32.04
74081;SHT31;62438;52.228;6.864;2022-09-03T13:35:32;29.20;30.57
74081;SHT31;62438;52.228;6.864;2022-09-03T13:37:46;28.96;31.65
74081;SHT31;62438;52.228;6.864;2022-09-03T13:39:51;28.92;32.07
74081;SHT31;62438;52.228;6.864;2022-09-03T13:42:19;28.78;31.91
74081;SHT31;62438;52.228;6.864;2022-09-03T13:46:55;29.12;31.58
74081;SHT31;62438;52.228;6.864;2022-09-03T13:49:38;28.79;32.40
74081;SHT31;62438;52.228;6.864;2022-09-03T13:52:01;28.17;32.76
74081;SHT31;62438;52.228;6.864;2022-09-03T13:54:13;28.00;33.16
74081;SHT31;62438;52.228;6.864;2022-09-03T13:56:34;27.88;33.46
74081;SHT31;62438;52.228;6.864;2022-09-03T13:58:49;28.09;33.48
74081;SHT31;62438;52.228;6.864;2022-09-03T14:03:30;27.56;35.02
74081;SHT31;62438;52.228;6.864;2022-09-03T14:10:05;27.05;35.61
74081;SHT31;62438;52.228;6.864;2022-09-03T14:12:44;27.04;35.84
74081;SHT31;62438;52.228;6.864;2022-09-03T14:19:57;27.11;35.56
74081;SHT31;62438;52.228;6.864;2022-09-03T14:22:12;27.16;34.59
74081;SHT31;62438;52.228;6.864;2022-09-03T14:24:20;26.93;36.59
74081;SHT31;62438;52.228;6.864;2022-09-03T14:26:51;26.83;36.43
74081;SHT31;62438;52.228;6.864;2022-09-03T14:29:49;26.86;35.75
74081;SHT31;62438;52.228;6.864;2022-09-03T14:36:35;26.11;37.02
74081;SHT31;62438;52.228;6.864;2022-09-03T14:41:34;26.21;37.21
74081;SHT31;62438;52.228;6.864;2022-09-03T14:48:33;26.60;36.30
74081;SHT31;62438;52.228;6.864;2022-09-03T14:53:11;26.32;35.99
74081;SHT31;62438;52.228;6.864;2022-09-03T14:55:38;26.40;37.14
74081;SHT31;62438;52.228;6.864;2022-09-03T15:04:49;26.66;36.89
74081;SHT31;62438;52.228;6.864;2022-09-03T15:09:14;26.84;35.96
74081;SHT31;62438;52.228;6.864;2022-09-03T15:11:19;26.64;36.70
74081;SHT31;62438;52.228;6.864;2022-09-03T15:13:26;26.63;36.83
74081;SHT31;62438;52.228;6.864;2022-09-03T15:27:41;26.67;37.46
74081;SHT31;62438;52.228;6.864;2022-09-03T15:34:52;26.50;36.12
74081;SHT31;62438;52.228;6.864;2022-09-03T15:36:56;26.40;36.54
74081;SHT31;62438;52.228;6.864;2022-09-03T15:39:21;26.31;36.48
74081;SHT31;62438;52.228;6.864;2022-09-03T15:41:49;26.40;36.15
74081;SHT31;62438;52.228;6.864;2022-09-03T15:44:12;26.28;36.92
74081;SHT31;62438;52.228;6.864;2022-09-03T15:48:55;26.37;37.36
74081;SHT31;62438;52.228;6.864;2022-09-03T15:53:28;26.11;37.46
74081;SHT31;62438;52.228;6.864;2022-09-03T15:55:32;26.11;38.01
74081;SHT31;62438;52.228;6.864;2022-09-03T16:00:05;26.16;37.74
74081;SHT31;62438;52.228;6.864;2022-09-03T16:07:20;26.14;36.71
74081;SHT31;62438;52.228;6.864;2022-09-03T16:11:38;25.91;38.15
74081;SHT31;62438;52.228;6.864;2022-09-03T16:16:23;25.78;38.05
74081;SHT31;62438;52.228;6.864;2022-09-03T16:23:06;25.82;39.30
74081;SHT31;62438;52.228;6.864;2022-09-03T16:25:13;25.68;38.37